Time;durP1;ratioP1;P1;durP2;ratioP2;P2;SDS_P1;SDS_P2;PMS_P1;PMS_P2;Temp;Humidity;BMP_temperature;BMP_pressure;BME280_temperature;BME280_humidity;BME280_pressure;Samples;Min_cycle;Max_cycle;Signal;HPM_P1;HPM_P2
2023/12/22 00:00:07;;;;;;;2.47;0.63;;;;;;;;;;5096428;28;20451;-75
2023/12/22 00:02:34;;;;;;;5.17;1.00;;;;;;;;;;5097130;28;20455;-74
2023/12/22 00:05:01;;;;;;;1.07;0.40;;;;;;;;;;5062163;28;20474;-77
2023/12/22 00:07:28;;;;;;;1.93;0.60;;;;;;;;;;5079021;28;20422;-75
2023/12/22 00:09:56;;;;;;;4.53;1.30;;;;;;;;;;5078884;28;20449;-76
2023/12/22 00:12:23;;;;;;;2.80;0.83;;;;;;;;;;5078596;28;20430;-74
2023/12/22 00:14:50;;;;;;;4.80;1.10;;;;;;;;;;5095951;28;20511;-75
2023/12/22 00:17:16;;;;;;;1.90;0.90;;;;;;;;;;5096464;28;20955;-75
2023/12/22 00:19:43;;;;;;;4.20;0.93;;;;;;;;;;5078233;28;20462;-75
2023/12/22 00:22:10;;;;;;;1.70;0.90;;;;;;;;;;5094986;28;20899;-76
2023/12/22 00:24:36;;;;;;;1.60;0.57;;;;;;;;;;5078295;28;20440;-76
2023/12/22 00:27:04;;;;;;;1.97;0.70;;;;;;;;;;5061678;28;20927;-76
2023/12/22 00:29:31;;;;;;;1.37;0.53;;;;;;;;;;5077769;28;20412;-76
2023/12/22 00:31:57;;;;;;;2.30;0.47;;;;;;;;;;5078851;28;20427;-75
2023/12/22 00:34:24;;;;;;;3.07;0.63;;;;;;;;;;5061896;28;20426;-74
2023/12/22 00:36:52;;;;;;;1.57;0.60;;;;;;;;;;5077637;28;20484;-74
2023/12/22 00:39:18;;;;;;;3.37;0.70;;;;;;;;;;5095758;28;20901;-75
2023/12/22 00:41:45;;;;;;;2.67;0.83;;;;;;;;;;5062059;28;20502;-75
2023/12/22 00:44:12;;;;;;;5.70;0.87;;;;;;;;;;5078355;28;20461;-75
2023/12/22 00:46:39;;;;;;;1.27;0.70;;;;;;;;;;5095728;28;20472;-78
2023/12/22 00:49:06;;;;;;;1.90;0.83;;;;;;;;;;5077941;28;20420;-77
2023/12/22 00:51:50;;;;;;;1.80;0.83;;;;;;;;;;5095052;28;20800;-76
2023/12/22 00:54:16;;;;;;;0.30;0.20;;;;;;;;;;5095244;28;20507;-75
2023/12/22 00:56:43;;;;;;;1.30;0.40;;;;;;;;;;5095675;28;20834;-74
2023/12/22 00:59:10;;;;;;;1.20;0.20;;;;;;;;;;5096342;28;20416;-75
2023/12/22 01:01:38;;;;;;;1.47;0.20;;;;;;;;;;5077399;28;20471;-77
2023/12/22 01:04:05;;;;;;;0.33;0.23;;;;;;;;;;5095054;28;20506;-79
2023/12/22 01:06:32;;;;;;;1.60;0.20;;;;;;;;;;5077060;28;20456;-76
2023/12/22 01:08:59;;;;;;;0.97;0.20;;;;;;;;;;5077168;28;20427;-74
2023/12/22 01:11:26;;;;;;;1.17;0.33;;;;;;;;;;5094179;28;20419;-76
2023/12/22 01:49:52;;;;;;;0.30;0.10;;;;;;;;;;5094160;28;20445;-76
2023/12/22 01:52:18;;;;;;;0.57;0.23;;;;;;;;;;5059832;28;20447;-78
2023/12/22 01:54:45;;;;;;;0.60;0.40;;;;;;;;;;5076385;28;20825;-75
2023/12/22 01:57:12;;;;;;;0.40;0.30;;;;;;;;;;5076875;28;20497;-76
2023/12/22 01:59:39;;;;;;;1.00;0.40;;;;;;;;;;5076292;28;20412;-76
2023/12/22 02:02:05;;;;;;;1.50;0.43;;;;;;;;;;5093797;28;20477;-77
2023/12/22 02:04:32;;;;;;;1.13;0.50;;;;;;;;;;5075598;28;20465;-78
2023/12/22 02:07:00;;;;;;;0.50;0.40;;;;;;;;;;5059750;28;20446;-75
2023/12/22 02:09:27;;;;;;;1.90;0.57;;;;;;;;;;5059801;28;20415;-77
2023/12/22 02:11:54;;;;;;;0.60;0.40;;;;;;;;;;5094757;28;20766;-76
2023/12/22 02:14:21;;;;;;;1.10;0.57;;;;;;;;;;5094307;28;20458;-75
2023/12/22 02:17:08;;;;;;;2.97;0.73;;;;;;;;;;5076726;28;20435;-77
2023/12/22 02:19:40;;;;;;;1.50;0.50;;;;;;;;;;5076055;28;20748;-75
2023/12/22 02:22:07;;;;;;;2.80;0.90;;;;;;;;;;5093651;28;20446;-76
2023/12/22 02:24:35;;;;;;;0.93;0.50;;;;;;;;;;5093650;28;20447;-78
2023/12/22 02:27:06;;;;;;;0.43;0.43;;;;;;;;;;5076343;28;20427;-76
2023/12/22 02:29:40;;;;;;;2.80;0.90;;;;;;;;;;5093931;28;20755;-76
2023/12/22 02:32:08;;;;;;;3.00;1.10;;;;;;;;;;5075822;28;20819;-76
2023/12/22 02:34:35;;;;;;;4.73;0.80;;;;;;;;;;5059529;28;20494;-77
2023/12/22 02:37:04;;;;;;;1.23;0.67;;;;;;;;;;5075758;28;20763;-76
2023/12/22 02:39:33;;;;;;;2.10;0.70;;;;;;;;;;5059739;28;20430;-76
2023/12/22 02:41:59;;;;;;;3.83;1.07;;;;;;;;;;5093428;28;20451;-76
2023/12/22 02:44:26;;;;;;;2.30;0.90;;;;;;;;;;5059053;28;20415;-75
2023/12/22 02:46:56;;;;;;;2.90;0.73;;;;;;;;;;5076147;28;20754;-74
2023/12/22 02:51:02;;;;;;;0.87;0.57;;;;;;;;;;5051776;28;20442;-74
2023/12/22 02:53:29;;;;;;;2.40;1.13;;;;;;;;;;5071171;28;20886;-74
2023/12/22 02:55:55;;;;;;;3.00;0.73;;;;;;;;;;5071147;28;20848;-75
2023/12/22 02:58:22;;;;;;;2.90;0.97;;;;;;;;;;5054258;28;20430;-74
2023/12/22 03:01:06;;;;;;;0.90;0.67;;;;;;;;;;5071727;28;20538;-76
2023/12/22 03:03:33;;;;;;;2.23;1.20;;;;;;;;;;5037731;28;20559;-75
2023/12/22 03:06:00;;;;;;;3.50;0.87;;;;;;;;;;5054261;28;20498;-75
2023/12/22 03:08:26;;;;;;;1.70;0.90;;;;;;;;;;5070876;28;20429;-75
2023/12/22 03:10:53;;;;;;;3.20;0.93;;;;;;;;;;5054566;28;20446;-76
2023/12/22 03:13:20;;;;;;;1.80;0.87;;;;;;;;;;5054355;28;20998;-76
2023/12/22 03:15:47;;;;;;;1.87;0.97;;;;;;;;;;5074581;28;20443;-75
2023/12/22 03:18:14;;;;;;;2.60;1.40;;;;;;;;;;5042071;28;20798;-75
2023/12/22 03:20:40;;;;;;;2.17;1.00;;;;;;;;;;5074233;28;21098;-75
2023/12/22 03:23:07;;;;;;;3.20;1.20;;;;;;;;;;5057972;28;20423;-76
2023/12/22 03:25:33;;;;;;;3.70;1.50;;;;;;;;;;5058060;28;20534;-75
2023/12/22 03:28:00;;;;;;;3.20;1.27;;;;;;;;;;5058069;28;20478;-75
2023/12/22 03:30:27;;;;;;;2.27;1.00;;;;;;;;;;5074668;28;20519;-77
2023/12/22 03:32:54;;;;;;;1.80;0.73;;;;;;;;;;5058156;28;20436;-77
2023/12/22 03:35:20;;;;;;;2.57;1.70;;;;;;;;;;5075325;28;20432;-77
2023/12/22 03:37:47;;;;;;;0.80;0.60;;;;;;;;;;5041012;28;20434;-80
2023/12/22 03:44:13;;;;;;;2.40;0.70;;;;;;;;;;5074606;28;20464;-79
2023/12/22 03:50:39;;;;;;;3.40;0.93;;;;;;;;;;5074206;28;20360;-78
2023/12/22 03:53:06;;;;;;;2.27;1.20;;;;;;;;;;5041765;28;20440;-80
2023/12/22 03:55:33;;;;;;;1.87;0.87;;;;;;;;;;5057750;28;20454;-78
2023/12/22 03:57:59;;;;;;;0.97;0.80;;;;;;;;;;5057275;28;20429;-79
2023/12/22 04:00:26;;;;;;;1.30;0.67;;;;;;;;;;5076326;28;20415;-81
2023/12/22 04:02:53;;;;;;;1.53;0.87;;;;;;;;;;5078312;28;20466;-78
2023/12/22 04:05:23;;;;;;;1.63;0.90;;;;;;;;;;5059507;28;20483;-76
2023/12/22 04:07:50;;;;;;;1.80;0.87;;;;;;;;;;5096133;28;20477;-75
2023/12/22 04:10:17;;;;;;;3.23;0.70;;;;;;;;;;5078191;28;20429;-77
2023/12/22 04:12:44;;;;;;;1.63;0.90;;;;;;;;;;5061781;28;20415;-76
2023/12/22 04:15:12;;;;;;;1.67;0.97;;;;;;;;;;5095856;28;20523;-77
2023/12/22 04:17:39;;;;;;;4.47;0.70;;;;;;;;;;5078168;28;20498;-77
2023/12/22 04:20:06;;;;;;;1.73;0.87;;;;;;;;;;5078153;28;21020;-78
2023/12/22 04:22:33;;;;;;;2.17;0.70;;;;;;;;;;5077789;28;20909;-77
2023/12/22 04:25:17;;;;;;;1.93;0.67;;;;;;;;;;5095342;28;20904;-75
2023/12/22 04:27:44;;;;;;;2.97;0.80;;;;;;;;;;5077449;28;20472;-80
2023/12/22 04:30:31;;;;;;;3.47;1.10;;;;;;;;;;5095849;28;20387;-78
2023/12/22 04:33:00;;;;;;;3.20;0.80;;;;;;;;;;5095948;28;20486;-80
2023/12/22 04:35:44;;;;;;;2.00;0.60;;;;;;;;;;5080667;28;20437;-80
2023/12/22 04:38:11;;;;;;;3.13;0.70;;;;;;;;;;5061467;28;20530;-77
2023/12/22 04:40:37;;;;;;;2.80;1.00;;;;;;;;;;5061409;28;20477;-76
2023/12/22 04:43:04;;;;;;;4.20;0.73;;;;;;;;;;5095800;28;20423;-79
2023/12/22 04:45:31;;;;;;;2.60;0.50;;;;;;;;;;5078024;28;20427;-77
2023/12/22 04:47:58;;;;;;;1.90;0.60;;;;;;;;;;5095687;28;20469;-76
2023/12/22 04:50:25;;;;;;;0.97;0.30;;;;;;;;;;5061653;28;20463;-79
2023/12/22 04:52:51;;;;;;;0.70;0.37;;;;;;;;;;5077620;28;20418;-76
2023/12/22 04:55:35;;;;;;;1.67;0.50;;;;;;;;;;5063563;28;20415;-76
2023/12/22 04:58:02;;;;;;;1.63;0.47;;;;;;;;;;5061402;28;20525;-80
2023/12/22 05:00:29;;;;;;;1.20;0.40;;;;;;;;;;5060658;28;20419;-75
2023/12/22 05:17:36;;;;;;;3.73;1.23;;;;;;;;;;5007994;28;20465;-77
2023/12/22 05:21:14;;;;;;;6.30;0.83;;;;;;;;;;4998759;28;20498;-78
2023/12/22 05:28:37;;;;;;;10.33;1.50;;;;;;;;;;4920449;29;20522;-79
2023/12/22 05:31:05;;;;;;;9.10;1.40;;;;;;;;;;4919667;29;20430;-78
2023/12/22 05:33:32;;;;;;;8.33;1.70;;;;;;;;;;4973205;28;20432;-78
2023/12/22 05:35:58;;;;;;;11.07;2.03;;;;;;;;;;4973322;28;20425;-76
2023/12/22 05:38:25;;;;;;;12.70;2.73;;;;;;;;;;4956498;28;20428;-76
2023/12/22 05:40:52;;;;;;;12.47;1.57;;;;;;;;;;4984382;28;20464;-78
2023/12/22 05:43:19;;;;;;;6.93;1.90;;;;;;;;;;5015797;28;20431;-76
2023/12/22 05:45:46;;;;;;;13.07;2.57;;;;;;;;;;5032247;28;20438;-76
2023/12/22 05:48:13;;;;;;;14.30;2.47;;;;;;;;;;5015515;28;20418;-77
2023/12/22 05:50:39;;;;;;;7.00;2.50;;;;;;;;;;5015435;28;20930;-77
2023/12/22 05:53:06;;;;;;;10.93;2.03;;;;;;;;;;5015538;28;20437;-77
2023/12/22 05:55:33;;;;;;;7.83;1.73;;;;;;;;;;5055749;28;20430;-76
2023/12/22 05:58:00;;;;;;;10.93;2.30;;;;;;;;;;5039476;28;20425;-77
2023/12/22 06:00:26;;;;;;;11.40;2.03;;;;;;;;;;5072722;28;20448;-76
2023/12/22 06:02:53;;;;;;;10.97;2.50;;;;;;;;;;5055920;28;20551;-75
2023/12/22 06:05:20;;;;;;;12.67;2.47;;;;;;;;;;5073570;28;20444;-77
2023/12/22 06:07:47;;;;;;;8.20;2.63;;;;;;;;;;5035614;28;20467;-75
2023/12/22 06:10:15;;;;;;;3.60;1.37;;;;;;;;;;5036220;28;20436;-74
2023/12/22 06:12:41;;;;;;;8.67;2.37;;;;;;;;;;5052945;28;20432;-71
2023/12/22 06:15:10;;;;;;;8.17;1.80;;;;;;;;;;5053374;28;20780;-70
2023/12/22 06:17:37;;;;;;;6.13;1.57;;;;;;;;;;5019548;28;20734;-74
2023/12/22 06:20:04;;;;;;;11.57;2.90;;;;;;;;;;5053685;28;20437;-73
2023/12/22 06:22:32;;;;;;;11.00;1.70;;;;;;;;;;5035619;28;20453;-74
2023/12/22 06:25:00;;;;;;;8.23;1.57;;;;;;;;;;5053455;28;20824;-75
2023/12/22 06:27:27;;;;;;;7.80;1.23;;;;;;;;;;5073456;28;20523;-73
2023/12/22 06:29:55;;;;;;;4.17;1.17;;;;;;;;;;5073490;28;20431;-73
2023/12/22 06:32:22;;;;;;;8.03;1.73;;;;;;;;;;5055815;28;20741;-74
2023/12/22 06:34:51;;;;;;;6.50;1.47;;;;;;;;;;5073376;28;20421;-75
2023/12/22 06:37:18;;;;;;;4.07;1.37;;;;;;;;;;5073824;28;20416;-75
2023/12/22 06:39:45;;;;;;;6.87;1.60;;;;;;;;;;5056096;28;20436;-75
2023/12/22 07:05:36;;;;;;;2.73;1.20;;;;;;;;;;5076911;28;20391;-73
2023/12/22 07:08:11;;;;;;;5.07;1.20;;;;;;;;;;5076004;28;20469;-73
2023/12/22 07:10:51;;;;;;;7.10;1.57;;;;;;;;;;5077420;28;20710;-73
2023/12/22 07:13:24;;;;;;;0.83;0.70;;;;;;;;;;5043431;28;20424;-73
2023/12/22 07:15:52;;;;;;;1.47;0.83;;;;;;;;;;5059703;28;20904;-76
2023/12/22 07:18:25;;;;;;;3.67;1.50;;;;;;;;;;5043141;28;20444;-75
2023/12/22 07:20:53;;;;;;;2.00;0.60;;;;;;;;;;5077085;28;20860;-75
2023/12/22 07:23:26;;;;;;;3.30;0.90;;;;;;;;;;5059028;28;20464;-75
2023/12/22 07:26:01;;;;;;;3.50;1.53;;;;;;;;;;5075685;28;20412;-76
2023/12/22 07:28:40;;;;;;;4.57;1.50;;;;;;;;;;5045154;28;20439;-76
2023/12/22 07:31:08;;;;;;;3.80;1.03;;;;;;;;;;5044017;28;20441;-74
2023/12/22 07:33:35;;;;;;;5.87;1.77;;;;;;;;;;5060532;28;20895;-75
2023/12/22 07:36:03;;;;;;;4.40;1.57;;;;;;;;;;5060113;28;20751;-74
2023/12/22 07:38:33;;;;;;;2.30;1.70;;;;;;;;;;5065351;28;20433;-76
2023/12/22 07:41:01;;;;;;;4.23;1.70;;;;;;;;;;5023860;28;20854;-75
2023/12/22 07:43:29;;;;;;;5.03;1.40;;;;;;;;;;5057546;28;20457;-75
2023/12/22 07:45:56;;;;;;;8.73;1.63;;;;;;;;;;5056309;28;20437;-74
2023/12/22 07:48:41;;;;;;;3.27;1.30;;;;;;;;;;5056814;28;20387;-74
2023/12/22 07:51:08;;;;;;;4.43;1.83;;;;;;;;;;5040506;28;20425;-74
2023/12/22 07:53:36;;;;;;;9.43;1.80;;;;;;;;;;5058500;28;20429;-74
2023/12/22 07:56:05;;;;;;;10.80;2.20;;;;;;;;;;5055660;28;20551;-73
2023/12/22 09:28:15;;;;;;;2.17;1.10;;;;;;;;;;5037519;28;20465;-74
2023/12/22 09:30:42;;;;;;;1.70;1.00;;;;;;;;;;5054949;28;20426;-74
2023/12/22 09:37:09;;;;;;;2.37;0.90;;;;;;;;;;5054799;28;20364;-74
2023/12/22 09:39:38;;;;;;;2.67;1.33;;;;;;;;;;5052968;28;20790;-75
2023/12/22 09:42:06;;;;;;;3.87;1.40;;;;;;;;;;5052959;28;20463;-72
2023/12/22 09:44:36;;;;;;;2.10;1.13;;;;;;;;;;5036364;28;20911;-72
2023/12/22 09:47:03;;;;;;;2.00;1.00;;;;;;;;;;5053767;28;20804;-74
2023/12/22 09:49:32;;;;;;;3.10;1.47;;;;;;;;;;5058405;28;20456;-72
2023/12/22 09:51:59;;;;;;;1.83;1.07;;;;;;;;;;5063516;28;20440;-72
2023/12/22 09:54:27;;;;;;;1.07;0.80;;;;;;;;;;5065264;28;20421;-72
2023/12/22 09:56:54;;;;;;;4.03;1.87;;;;;;;;;;5063531;28;20451;-72
2023/12/22 09:59:24;;;;;;;4.23;1.60;;;;;;;;;;5047315;28;20807;-72
2023/12/22 10:01:58;;;;;;;1.17;0.83;;;;;;;;;;5063059;28;20519;-72
2023/12/22 10:04:25;;;;;;;1.70;1.00;;;;;;;;;;5062905;28;20424;-72
2023/12/22 10:06:52;;;;;;;2.77;1.87;;;;;;;;;;5063437;28;20497;-72
2023/12/22 10:09:19;;;;;;;1.77;1.03;;;;;;;;;;5063149;28;20527;-73
2023/12/22 10:11:46;;;;;;;1.97;1.10;;;;;;;;;;5030388;28;20504;-72
2023/12/22 10:14:20;;;;;;;4.30;1.37;;;;;;;;;;5063381;28;20510;-73
2023/12/22 10:17:07;;;;;;;2.57;1.50;;;;;;;;;;5065762;28;20440;-69
2023/12/22 10:19:35;;;;;;;2.77;1.60;;;;;;;;;;5065309;28;20470;-71
2023/12/22 10:22:03;;;;;;;3.00;1.60;;;;;;;;;;5063867;28;20464;-68
2023/12/22 10:24:43;;;;;;;3.73;1.53;;;;;;;;;;5047757;28;20823;-71
2023/12/22 10:27:12;;;;;;;1.90;1.13;;;;;;;;;;5051171;28;20492;-71
2023/12/22 10:29:47;;;;;;;2.07;0.97;;;;;;;;;;4995717;28;20445;-69
2023/12/22 10:32:16;;;;;;;1.47;0.97;;;;;;;;;;5027104;28;20441;-71
2023/12/22 10:34:48;;;;;;;2.27;1.20;;;;;;;;;;5011233;28;20442;-70
2023/12/22 10:37:21;;;;;;;1.53;0.70;;;;;;;;;;5011579;28;20461;-71
2023/12/22 10:39:54;;;;;;;2.60;1.47;;;;;;;;;;5027595;28;20436;-72
2023/12/22 10:42:42;;;;;;;2.13;1.27;;;;;;;;;;5015251;28;20640;-71
2023/12/22 10:45:09;;;;;;;2.07;1.40;;;;;;;;;;5044436;28;20425;-72
2023/12/22 10:47:37;;;;;;;3.47;1.60;;;;;;;;;;5033113;28;20772;-72
2023/12/22 10:50:04;;;;;;;2.10;1.17;;;;;;;;;;5026658;28;20751;-72
2023/12/22 10:52:33;;;;;;;2.17;1.20;;;;;;;;;;5026004;28;20444;-70
2023/12/22 10:55:02;;;;;;;1.97;1.10;;;;;;;;;;5010535;28;20439;-71
2023/12/22 10:57:31;;;;;;;3.37;1.40;;;;;;;;;;5044258;28;20417;-71
2023/12/22 11:00:03;;;;;;;2.47;1.60;;;;;;;;;;5011195;28;20523;-69
2023/12/22 11:02:48;;;;;;;1.80;1.10;;;;;;;;;;5015585;28;20498;-70
2023/12/22 11:05:17;;;;;;;1.73;1.30;;;;;;;;;;5026376;28;20419;-71
2023/12/22 11:07:48;;;;;;;2.17;1.37;;;;;;;;;;4994538;28;20453;-69
2023/12/22 11:10:19;;;;;;;1.07;0.83;;;;;;;;;;5026580;28;20479;-69
2023/12/22 11:12:46;;;;;;;2.27;0.97;;;;;;;;;;5026183;28;20495;-68
2023/12/22 11:15:15;;;;;;;1.53;1.00;;;;;;;;;;5027165;28;20432;-70
2023/12/22 11:17:45;;;;;;;1.53;1.00;;;;;;;;;;5026185;28;20446;-72
2023/12/22 11:20:12;;;;;;;1.73;0.97;;;;;;;;;;5042214;28;20449;-72
2023/12/22 11:22:40;;;;;;;2.37;1.17;;;;;;;;;;5026065;28;20465;-70
2023/12/22 11:25:08;;;;;;;3.40;1.60;;;;;;;;;;5026197;28;21042;-71
2023/12/22 11:27:38;;;;;;;4.30;1.40;;;;;;;;;;5054813;28;20477;-69
2023/12/22 11:30:08;;;;;;;2.73;1.50;;;;;;;;;;5050045;28;20486;-71
2023/12/22 11:32:37;;;;;;;1.77;1.10;;;;;;;;;;5066421;28;20948;-69
2023/12/22 11:35:05;;;;;;;1.63;0.80;;;;;;;;;;5051175;28;20554;-70
2023/12/22 11:37:33;;;;;;;2.07;0.80;;;;;;;;;;5053248;28;20446;-70
2023/12/22 11:40:00;;;;;;;1.30;0.80;;;;;;;;;;5088746;28;20449;-71
2023/12/22 11:42:32;;;;;;;1.23;0.80;;;;;;;;;;5052756;28;20459;-73
2023/12/22 11:45:00;;;;;;;1.30;0.60;;;;;;;;;;5069493;28;20459;-70
2023/12/22 11:47:29;;;;;;;1.20;0.70;;;;;;;;;;5032249;28;20430;-71
2023/12/22 11:49:58;;;;;;;2.60;1.10;;;;;;;;;;5037498;28;20449;-69
2023/12/22 11:52:26;;;;;;;2.20;0.60;;;;;;;;;;5070016;28;20446;-69
2023/12/22 11:54:54;;;;;;;1.50;0.70;;;;;;;;;;5053119;28;20432;-71
2023/12/22 11:57:33;;;;;;;0.97;0.60;;;;;;;;;;5053839;28;20437;-69
2023/12/22 12:00:06;;;;;;;3.57;0.70;;;;;;;;;;5087752;28;20441;-71
2023/12/22 12:02:41;;;;;;;0.77;0.57;;;;;;;;;;5084449;28;20467;-72
2023/12/22 12:05:09;;;;;;;1.70;1.13;;;;;;;;;;5067605;28;20447;-72
2023/12/22 12:07:36;;;;;;;8.23;3.13;;;;;;;;;;5067812;28;20933;-72
2023/12/22 12:10:04;;;;;;;2.30;1.50;;;;;;;;;;5066608;28;20526;-73
2023/12/22 12:12:34;;;;;;;2.43;1.70;;;;;;;;;;5033569;28;20455;-74
2023/12/22 12:15:06;;;;;;;2.20;1.37;;;;;;;;;;5067566;28;20453;-72
2023/12/22 12:17:34;;;;;;;2.30;1.07;;;;;;;;;;5050311;28;20439;-69
2023/12/22 12:20:07;;;;;;;2.20;1.50;;;;;;;;;;5066602;28;20464;-71
2023/12/22 12:22:38;;;;;;;2.53;1.40;;;;;;;;;;5065903;28;20480;-70
2023/12/22 12:25:10;;;;;;;1.47;1.07;;;;;;;;;;5048850;28;20448;-70
2023/12/22 12:28:05;;;;;;;1.50;0.60;;;;;;;;;;5065198;28;20475;-70
2023/12/22 12:30:33;;;;;;;1.63;1.10;;;;;;;;;;5065719;28;20439;-69
2023/12/22 12:33:19;;;;;;;3.47;1.83;;;;;;;;;;5065908;28;20436;-70
2023/12/22 12:35:47;;;;;;;2.00;1.20;;;;;;;;;;5065180;28;20511;-68
2023/12/22 12:38:18;;;;;;;1.33;0.80;;;;;;;;;;5071516;28;20916;-70
2023/12/22 12:40:45;;;;;;;1.50;0.70;;;;;;;;;;5075128;28;20425;-70
2023/12/22 12:43:12;;;;;;;1.33;1.10;;;;;;;;;;5073614;28;20479;-71
2023/12/22 12:45:41;;;;;;;2.53;1.67;;;;;;;;;;5075096;28;20413;-74
2023/12/22 12:48:20;;;;;;;2.40;1.20;;;;;;;;;;5060676;28;20399;-73
2023/12/22 12:50:49;;;;;;;1.33;0.77;;;;;;;;;;5058843;28;20911;-74
2023/12/22 12:53:17;;;;;;;1.60;0.93;;;;;;;;;;5076878;28;20478;-74
2023/12/22 12:55:44;;;;;;;1.67;0.83;;;;;;;;;;5074052;28;20486;-70
2023/12/22 12:58:13;;;;;;;1.80;1.10;;;;;;;;;;5057814;28;20911;-69
2023/12/22 13:00:48;;;;;;;2.70;1.53;;;;;;;;;;5074896;28;20489;-70
2023/12/22 13:50:23;;;;;;;1.50;0.93;;;;;;;;;;5060934;28;20446;-69
2023/12/22 13:52:51;;;;;;;2.67;1.93;;;;;;;;;;5045828;28;20448;-70
2023/12/22 13:55:19;;;;;;;2.53;2.00;;;;;;;;;;5014539;28;20421;-68
2023/12/22 13:57:46;;;;;;;4.03;2.43;;;;;;;;;;5047614;28;20422;-69
2023/12/22 14:00:16;;;;;;;4.40;2.83;;;;;;;;;;5046947;28;20499;-69
2023/12/22 14:03:04;;;;;;;4.00;2.93;;;;;;;;;;5043974;28;20457;-70
2023/12/22 14:05:43;;;;;;;2.27;1.23;;;;;;;;;;5047428;28;20525;-68
2023/12/22 14:08:17;;;;;;;2.80;1.40;;;;;;;;;;5047046;28;20432;-69
2023/12/22 14:38:23;;;;;;;3.37;1.93;;;;;;;;;;5033706;28;20870;-71
2023/12/22 14:41:00;;;;;;;3.23;1.47;;;;;;;;;;5038487;28;20425;-71
2023/12/22 14:43:27;;;;;;;3.30;2.10;;;;;;;;;;5033194;28;20808;-72
2023/12/22 14:45:54;;;;;;;1.30;1.10;;;;;;;;;;5033654;28;20426;-73
2023/12/22 14:48:23;;;;;;;5.53;2.77;;;;;;;;;;5032511;28;20419;-73
2023/12/22 14:50:50;;;;;;;5.90;2.70;;;;;;;;;;5015970;28;20489;-71
2023/12/22 17:15:24;;;;;;;8.17;4.07;;;;;;;;;;4447446;28;20474;-73
2023/12/22 17:17:52;;;;;;;9.17;3.33;;;;;;;;;;5047666;28;20436;-73
2023/12/22 17:20:20;;;;;;;6.53;2.90;;;;;;;;;;5032678;28;20962;-74
2023/12/22 17:22:48;;;;;;;6.00;3.03;;;;;;;;;;5066022;28;20443;-70
2023/12/22 17:25:19;;;;;;;6.27;2.97;;;;;;;;;;5047853;28;20502;-71
2023/12/22 17:27:46;;;;;;;6.20;2.97;;;;;;;;;;5065109;28;20916;-73
2023/12/22 17:30:13;;;;;;;6.53;2.93;;;;;;;;;;5065338;28;20423;-71
2023/12/22 17:32:42;;;;;;;6.07;2.57;;;;;;;;;;5053527;28;20458;-71
2023/12/22 17:35:13;;;;;;;5.07;2.33;;;;;;;;;;5050120;28;20438;-72
2023/12/22 17:37:41;;;;;;;5.17;3.07;;;;;;;;;;5047457;28;20439;-72
2023/12/22 17:40:16;;;;;;;8.33;3.33;;;;;;;;;;5035359;28;20777;-71
2023/12/22 17:42:55;;;;;;;6.27;2.63;;;;;;;;;;5034264;28;20470;-73
2023/12/22 17:45:34;;;;;;;4.60;2.57;;;;;;;;;;5018500;28;20455;-73
2023/12/22 17:48:05;;;;;;;7.63;3.43;;;;;;;;;;5002253;28;20778;-72
2023/12/22 17:50:38;;;;;;;8.20;3.13;;;;;;;;;;5050873;28;20812;-71
2023/12/22 17:53:24;;;;;;;6.90;3.20;;;;;;;;;;5033308;28;20422;-73
2023/12/22 17:59:52;;;;;;;4.57;2.23;;;;;;;;;;5034309;28;20421;-73
2023/12/22 18:02:19;;;;;;;6.00;3.40;;;;;;;;;;5034049;28;20429;-73
2023/12/22 18:04:47;;;;;;;4.13;2.50;;;;;;;;;;5034159;28;20576;-73
2023/12/22 18:07:18;;;;;;;3.73;2.43;;;;;;;;;;5016659;28;20508;-73
2023/12/22 18:09:45;;;;;;;7.03;2.80;;;;;;;;;;5016728;28;20418;-74
2023/12/22 18:12:12;;;;;;;8.87;2.87;;;;;;;;;;5016215;28;20437;-70
2023/12/22 18:14:39;;;;;;;3.77;2.13;;;;;;;;;;5035872;28;20496;-70
2023/12/22 18:17:06;;;;;;;7.20;3.50;;;;;;;;;;5053107;28;20400;-68
2023/12/22 18:19:33;;;;;;;6.10;3.20;;;;;;;;;;5052753;28;20476;-69
2023/12/22 18:22:00;;;;;;;6.50;2.37;;;;;;;;;;5068751;28;20781;-69
2023/12/22 18:24:27;;;;;;;5.37;2.03;;;;;;;;;;5053664;28;20494;-68
2023/12/22 18:26:54;;;;;;;8.20;2.57;;;;;;;;;;5052794;28;20954;-69
2023/12/22 18:29:22;;;;;;;9.37;2.53;;;;;;;;;;5053058;28;20466;-68
2023/12/22 18:31:49;;;;;;;7.77;3.83;;;;;;;;;;5052203;28;20923;-69
2023/12/22 18:34:16;;;;;;;7.70;2.93;;;;;;;;;;5054709;28;20425;-69
2023/12/22 18:36:43;;;;;;;7.57;2.53;;;;;;;;;;5035444;28;20483;-69
2023/12/22 18:39:12;;;;;;;9.57;2.70;;;;;;;;;;5052117;28;20452;-69
2023/12/22 18:41:39;;;;;;;8.43;3.20;;;;;;;;;;5053294;28;20414;-69
2023/12/22 18:44:06;;;;;;;7.97;2.70;;;;;;;;;;5053506;28;20885;-69
2023/12/22 18:46:33;;;;;;;7.30;3.33;;;;;;;;;;5039585;28;20417;-69
2023/12/22 18:49:00;;;;;;;9.00;3.43;;;;;;;;;;5072781;28;20442;-69
2023/12/22 18:51:27;;;;;;;10.97;4.23;;;;;;;;;;5056103;28;20409;-69
2023/12/22 18:53:54;;;;;;;6.33;2.80;;;;;;;;;;5056250;28;20944;-69
2023/12/22 18:56:39;;;;;;;8.93;3.57;;;;;;;;;;5042182;28;20493;-68
2023/12/22 18:59:07;;;;;;;8.83;3.67;;;;;;;;;;5057370;28;20995;-69
2023/12/22 19:01:34;;;;;;;5.83;2.77;;;;;;;;;;5056402;28;20433;-69
2023/12/22 19:04:19;;;;;;;8.80;3.47;;;;;;;;;;5057779;28;20440;-69
2023/12/22 19:06:46;;;;;;;8.30;2.80;;;;;;;;;;5056577;28;20458;-69
2023/12/22 19:09:14;;;;;;;7.67;3.57;;;;;;;;;;5039868;28;20502;-68
2023/12/22 19:15:41;;;;;;;6.67;3.10;;;;;;;;;;5057004;28;20573;-69
2023/12/22 19:18:07;;;;;;;7.23;3.50;;;;;;;;;;5055918;28;20486;-69
2023/12/22 19:20:35;;;;;;;8.53;3.07;;;;;;;;;;5057476;28;20760;-69
2023/12/22 19:23:03;;;;;;;9.63;3.47;;;;;;;;;;5072053;28;20517;-69
2023/12/22 19:25:30;;;;;;;9.90;3.50;;;;;;;;;;5056988;28;20555;-69
2023/12/22 19:27:57;;;;;;;10.03;4.10;;;;;;;;;;5072655;28;20431;-69
2023/12/22 19:30:27;;;;;;;7.00;2.63;;;;;;;;;;5057000;28;20479;-69
2023/12/22 19:32:54;;;;;;;8.33;2.10;;;;;;;;;;5055219;28;20426;-69
2023/12/22 19:35:21;;;;;;;7.43;2.60;;;;;;;;;;5056752;28;20412;-69
2023/12/22 19:37:49;;;;;;;9.63;3.57;;;;;;;;;;5055673;28;20439;-69
2023/12/22 19:40:17;;;;;;;14.07;5.20;;;;;;;;;;5055459;28;20461;-69
2023/12/22 19:42:44;;;;;;;15.37;5.20;;;;;;;;;;5038721;28;20531;-69
2023/12/22 19:45:11;;;;;;;10.70;3.77;;;;;;;;;;5055482;28;20484;-69
2023/12/22 19:47:39;;;;;;;7.70;3.33;;;;;;;;;;5056504;28;20919;-69
2023/12/22 19:50:07;;;;;;;10.30;3.70;;;;;;;;;;5055686;28;20531;-69
2023/12/22 19:52:34;;;;;;;10.23;3.93;;;;;;;;;;5056111;28;20504;-69
2023/12/22 19:55:01;;;;;;;8.00;3.30;;;;;;;;;;5054977;28;20421;-69
2023/12/22 19:57:46;;;;;;;8.37;3.33;;;;;;;;;;5073971;28;20396;-69
2023/12/22 20:00:13;;;;;;;7.17;3.60;;;;;;;;;;5058349;28;20434;-69
2023/12/22 20:02:40;;;;;;;8.33;3.67;;;;;;;;;;5076484;28;20435;-69
2023/12/22 20:05:09;;;;;;;7.57;3.17;;;;;;;;;;5041699;28;20456;-69
2023/12/22 20:07:39;;;;;;;9.73;3.50;;;;;;;;;;5042704;28;20409;-69
2023/12/22 20:10:06;;;;;;;8.90;2.53;;;;;;;;;;5076037;28;20518;-69
2023/12/22 20:12:33;;;;;;;4.70;2.40;;;;;;;;;;5076368;28;20430;-69
2023/12/22 20:15:00;;;;;;;5.30;2.30;;;;;;;;;;5041388;28;20511;-69
2023/12/22 20:17:28;;;;;;;8.10;2.50;;;;;;;;;;5058664;28;20429;-69
2023/12/22 20:19:55;;;;;;;7.10;2.67;;;;;;;;;;5075932;28;20532;-69
2023/12/22 20:22:22;;;;;;;5.80;2.17;;;;;;;;;;5058048;28;20519;-69
2023/12/22 20:25:10;;;;;;;6.47;2.80;;;;;;;;;;5076207;28;20444;-69
2023/12/22 20:27:39;;;;;;;7.43;2.37;;;;;;;;;;5076370;28;20728;-69
2023/12/22 20:30:08;;;;;;;6.80;2.93;;;;;;;;;;5058099;28;20794;-69
2023/12/22 20:32:35;;;;;;;9.20;2.93;;;;;;;;;;5057967;28;20529;-69
2023/12/22 20:35:04;;;;;;;6.40;2.50;;;;;;;;;;5058252;28;20805;-69
2023/12/22 20:37:31;;;;;;;6.70;2.90;;;;;;;;;;5058485;28;20832;-69
2023/12/22 20:39:59;;;;;;;7.00;2.97;;;;;;;;;;5057717;28;20899;-69
2023/12/22 20:42:26;;;;;;;6.03;2.83;;;;;;;;;;5060851;28;20430;-69
2023/12/22 20:44:53;;;;;;;7.80;3.17;;;;;;;;;;5075683;28;20461;-69
2023/12/22 20:47:19;;;;;;;6.27;2.30;;;;;;;;;;5075433;28;20509;-69
2023/12/22 20:49:46;;;;;;;4.53;1.53;;;;;;;;;;5073887;28;20428;-69
2023/12/22 20:52:13;;;;;;;4.80;1.97;;;;;;;;;;5075582;28;20487;-70
2023/12/22 20:54:40;;;;;;;5.03;2.50;;;;;;;;;;5074924;28;20903;-69
2023/12/22 20:57:07;;;;;;;9.30;2.73;;;;;;;;;;5073607;28;20441;-69
2023/12/22 20:59:37;;;;;;;5.90;2.93;;;;;;;;;;5075405;28;20891;-69
2023/12/22 21:02:05;;;;;;;6.07;2.67;;;;;;;;;;5057365;28;20512;-69
2023/12/22 21:04:36;;;;;;;4.53;2.13;;;;;;;;;;5057176;28;20867;-68
2023/12/22 21:07:03;;;;;;;7.20;2.80;;;;;;;;;;5075287;28;20405;-70
2023/12/22 21:09:33;;;;;;;8.23;2.80;;;;;;;;;;5073492;28;20749;-68
2023/12/22 21:12:01;;;;;;;6.07;2.63;;;;;;;;;;5073564;28;20447;-68
2023/12/22 21:14:32;;;;;;;5.30;2.53;;;;;;;;;;5073238;28;20423;-68
2023/12/22 21:17:06;;;;;;;6.20;2.67;;;;;;;;;;5057774;28;20438;-70
2023/12/22 21:19:34;;;;;;;7.77;3.03;;;;;;;;;;5075070;28;20452;-69
2023/12/22 21:22:01;;;;;;;7.10;2.90;;;;;;;;;;5074570;28;20529;-70
2023/12/22 21:24:28;;;;;;;5.03;2.53;;;;;;;;;;5074354;28;20472;-68
2023/12/22 21:26:56;;;;;;;3.23;2.00;;;;;;;;;;5056805;28;20418;-68
2023/12/22 21:29:25;;;;;;;6.37;2.67;;;;;;;;;;5073141;28;20432;-68
2023/12/22 21:31:53;;;;;;;6.57;2.83;;;;;;;;;;5074282;28;20428;-68
2023/12/22 21:34:20;;;;;;;6.00;2.90;;;;;;;;;;5072834;28;20424;-72
2023/12/22 21:36:48;;;;;;;9.87;3.63;;;;;;;;;;5056740;28;20430;-72
2023/12/22 21:39:16;;;;;;;9.57;3.40;;;;;;;;;;5074328;28;20424;-71
2023/12/22 21:41:43;;;;;;;9.30;3.50;;;;;;;;;;5072564;28;20519;-71